Pioneer, New York
Current Conditions -  °F | °C
As of 7:51 AM on Friday 31 Oct 2014 (Local Time) from KALB Reporting Station
Moderate Fog Moderate Fog  
Wind Chill: 32°   Ceiling: 100
Heat Index: 32°   Visibility: 0.12mi
Dew Point: 30°   Wind: 0mph
Humidity: 92%   Direction: NA
Pressure: 30.06"   Gusts: NA
Location:  43.002°N, 73.8759°W
Report Text: KALB 311151Z 00000KT 1/8SM R01/0400FT FG BKN001 00/M01 A3006 RMK AO2 SLP180 I1001 I6001 T00001011 10017 21006 53004
Loading
Personal Weather Stations






























Interactive Weather Map
Tropical Storm Tracking
New forecast layout! Learn more

10-Day Weather Forecast

Advertisements
Track Severe Weather on mobile